createdAt,value
2023-09-07T00:01:08.094Z,4.32
2023-09-07T00:03:57.373Z,4.47
2023-09-07T00:06:46.850Z,4.13
2023-09-07T00:09:33.278Z,4.13
2023-09-07T00:12:22.256Z,4.43
2023-09-07T00:15:11.608Z,3.57
2023-09-07T00:17:58.427Z,4.18
2023-09-07T00:20:45.455Z,4.07
2023-09-07T00:23:34.586Z,3.97
2023-09-07T00:26:21.108Z,4.20
2023-09-07T00:29:10.807Z,4.28
2023-09-07T00:31:58.922Z,3.92
2023-09-07T00:34:45.643Z,4.30
2023-09-07T00:37:35.371Z,3.97
2023-09-07T00:40:22.239Z,3.90
2023-09-07T00:43:09.179Z,4.00
2023-09-07T00:45:58.803Z,4.22
2023-09-07T00:48:46.974Z,3.53
2023-09-07T00:51:34.050Z,3.72
2023-09-07T00:54:28.440Z,3.80
2023-09-07T00:57:17.099Z,3.53
2023-09-07T01:00:07.140Z,3.40
2023-09-07T01:02:54.808Z,3.88
2023-09-07T01:05:53.113Z,3.80
2023-09-07T01:08:51.627Z,4.10
2023-09-07T01:11:40.094Z,3.88
2023-09-07T01:14:29.151Z,3.90
2023-09-07T01:17:23.707Z,3.67
2023-09-07T01:20:17.782Z,3.80
2023-09-07T01:23:07.290Z,4.30
2023-09-07T01:25:57.838Z,3.53
2023-09-07T01:28:53.473Z,3.90
2023-09-07T01:31:41.322Z,3.90
2023-09-07T01:34:28.623Z,4.10
2023-09-07T01:37:17.700Z,3.65
2023-09-07T01:40:20.541Z,4.55
2023-09-07T01:43:07.020Z,4.30
2023-09-07T01:45:56.124Z,4.10
2023-09-07T01:48:43.974Z,4.20
2023-09-07T01:51:30.816Z,4.07
2023-09-07T01:54:17.216Z,4.70
2023-09-07T01:57:07.471Z,3.80
2023-09-07T01:59:53.813Z,4.22
2023-09-07T02:02:40.456Z,4.18
2023-09-07T02:05:27.036Z,4.18
2023-09-07T02:08:16.470Z,4.60
2023-09-07T02:11:06.239Z,4.22
2023-09-07T02:13:57.093Z,4.60
2023-09-07T02:16:46.175Z,4.50
2023-09-07T02:19:39.132Z,4.85
2023-09-07T02:22:25.970Z,4.68
2023-09-07T02:25:13.526Z,4.70
2023-09-07T02:28:00.510Z,4.13
2023-09-07T02:30:51.583Z,4.60
2023-09-07T02:33:39.655Z,4.15
2023-09-07T02:36:26.581Z,4.40
2023-09-07T02:39:13.677Z,4.40
2023-09-07T02:42:01.301Z,4.20
2023-09-07T02:44:47.845Z,4.82
2023-09-07T02:47:40.825Z,4.20
2023-09-07T02:50:27.314Z,4.35
2023-09-07T02:53:13.727Z,3.88
2023-09-07T02:56:02.055Z,4.00
2023-09-07T02:58:51.509Z,4.90
2023-09-07T03:01:40.269Z,4.67
2023-09-07T03:04:30.314Z,4.20
2023-09-07T03:07:16.712Z,4.38
2023-09-07T03:10:03.695Z,4.80
2023-09-07T03:12:31.978Z,4.45
2023-09-07T03:15:04.240Z,4.70
2023-09-07T03:17:32.741Z,4.20
2023-09-07T03:20:06.868Z,4.75
2023-09-07T03:22:35.032Z,4.50
2023-09-07T03:25:03.291Z,4.50
2023-09-07T03:27:34.943Z,4.50
2023-09-07T03:30:04.957Z,4.72
2023-09-07T03:32:34.007Z,4.47
2023-09-07T03:35:08.066Z,4.30
2023-09-07T03:37:36.202Z,4.95
2023-09-07T03:40:06.535Z,4.20
2023-09-07T03:42:37.261Z,4.10
2023-09-07T03:45:06.353Z,4.30
2023-09-07T03:47:35.591Z,4.20
2023-09-07T03:50:07.095Z,3.90
2023-09-07T03:52:35.821Z,4.15
2023-09-07T03:55:06.118Z,4.30
2023-09-07T03:57:34.403Z,4.20
2023-09-07T04:02:53.381Z,4.50
2023-09-07T04:05:24.025Z,4.20
2023-09-07T04:07:55.364Z,4.45
2023-09-07T04:10:46.457Z,4.60
2023-09-07T04:13:33.067Z,4.70
2023-09-07T04:16:19.989Z,4.97
2023-09-07T04:19:06.772Z,4.90
2023-09-07T04:22:10.034Z,4.35
2023-09-07T04:24:56.801Z,4.15
2023-09-07T04:27:52.945Z,4.30
2023-09-07T04:30:40.323Z,4.30
2023-09-07T04:33:08.577Z,4.53
2023-09-07T04:35:38.649Z,4.30
2023-09-07T04:38:12.360Z,4.10
2023-09-07T04:40:40.543Z,4.40
2023-09-07T04:43:10.903Z,4.57
2023-09-07T04:45:39.167Z,4.55
2023-09-07T04:48:08.036Z,4.10
2023-09-07T04:50:44.248Z,4.70
2023-09-07T04:53:14.017Z,4.50
2023-09-07T04:55:42.232Z,4.78
2023-09-07T04:58:10.322Z,4.70
2023-09-07T05:00:38.545Z,4.60
2023-09-07T05:03:06.903Z,4.90
2023-09-07T05:05:35.777Z,4.90
2023-09-07T05:08:05.100Z,4.80
2023-09-07T05:10:40.214Z,5.00
2023-09-07T05:13:10.817Z,4.60
2023-09-07T05:15:39.976Z,4.30
2023-09-07T05:18:08.476Z,4.45
2023-09-07T05:20:36.630Z,4.88
2023-09-07T05:23:07.639Z,4.70
2023-09-07T05:25:44.397Z,4.50
2023-09-07T05:28:13.180Z,4.82
2023-09-07T05:30:41.637Z,4.55
2023-09-07T05:33:13.265Z,4.60
2023-09-07T05:35:42.927Z,4.80
2023-09-07T05:38:11.801Z,4.72
2023-09-07T05:40:51.341Z,4.33
2023-09-07T05:43:19.891Z,4.93
2023-09-07T05:45:48.530Z,4.90
2023-09-07T05:48:25.705Z,5.10
2023-09-07T05:50:57.193Z,4.73
2023-09-07T05:53:27.325Z,5.30
2023-09-07T05:56:01.688Z,4.65
2023-09-07T05:58:30.983Z,4.87
2023-09-07T06:01:04.353Z,4.80
2023-09-07T06:03:33.482Z,4.05
2023-09-07T06:06:01.739Z,6.15
2023-09-07T06:08:32.600Z,8.18
2023-09-07T06:11:04.745Z,5.65
2023-09-07T06:13:35.372Z,5.50
2023-09-07T06:16:11.614Z,5.18
2023-09-07T06:18:39.786Z,5.18
2023-09-07T06:21:10.017Z,5.18
2023-09-07T06:23:38.755Z,4.40
2023-09-07T06:26:10.829Z,4.85
2023-09-07T06:28:39.942Z,4.40
2023-09-07T06:31:08.437Z,5.20
2023-09-07T06:33:57.562Z,5.38
2023-09-07T06:36:48.551Z,4.57
2023-09-07T06:39:38.901Z,4.60
2023-09-07T06:42:35.512Z,5.18
2023-09-07T06:45:26.230Z,5.32
2023-09-07T06:48:15.643Z,5.13
2023-09-07T06:51:05.109Z,4.95
2023-09-07T06:56:42.146Z,6.07
2023-09-07T06:59:30.512Z,5.43
2023-09-07T07:02:21.858Z,5.22
2023-09-07T07:05:09.524Z,5.30
2023-09-07T07:07:56.485Z,4.80
2023-09-07T07:10:47.046Z,5.78
2023-09-07T07:13:15.780Z,6.20
2023-09-07T07:15:45.366Z,5.55
2023-09-07T07:18:13.858Z,5.70
2023-09-07T07:20:46.314Z,5.88
2023-09-07T07:23:17.035Z,5.70
2023-09-07T07:25:45.278Z,5.25
2023-09-07T07:28:13.692Z,5.00
2023-09-07T07:30:42.821Z,5.90
2023-09-07T07:33:13.930Z,5.30
2023-09-07T07:35:42.391Z,5.40
2023-09-07T07:38:11.082Z,5.50
2023-09-07T07:40:41.889Z,5.60
2023-09-07T07:43:11.395Z,5.93
2023-09-07T07:45:41.936Z,5.70
2023-09-07T07:48:10.138Z,5.80
2023-09-07T07:50:45.472Z,6.00
2023-09-07T07:53:15.809Z,5.80
2023-09-07T07:55:44.846Z,6.15
2023-09-07T07:58:18.840Z,6.35
2023-09-07T08:00:52.015Z,5.95
2023-09-07T08:03:25.007Z,6.20
2023-09-07T08:05:55.327Z,5.68
2023-09-07T08:08:42.701Z,5.95
2023-09-07T08:11:29.797Z,5.80
2023-09-07T08:14:17.551Z,5.63
2023-09-07T08:17:06.881Z,5.10
2023-09-07T08:20:04.946Z,5.85
2023-09-07T08:22:58.852Z,5.63
2023-09-07T08:25:48.002Z,6.63
2023-09-07T08:28:37.884Z,5.87
2023-09-07T08:31:24.329Z,5.22
2023-09-07T08:34:12.162Z,5.40
2023-09-07T08:37:00.969Z,4.97
2023-09-07T08:39:49.272Z,5.10
2023-09-07T08:42:37.272Z,4.97
2023-09-07T08:45:28.122Z,4.78
2023-09-07T08:48:18.648Z,4.38
2023-09-07T08:51:08.282Z,4.40
2023-09-07T08:54:00.780Z,4.03
2023-09-07T08:56:53.001Z,4.10
2023-09-07T08:59:39.862Z,4.00
2023-09-07T09:02:32.506Z,3.97
2023-09-07T09:08:33.968Z,3.88
2023-09-07T09:11:21.822Z,3.70
2023-09-07T09:14:18.933Z,3.97
2023-09-07T09:17:05.715Z,3.40
2023-09-07T09:19:52.813Z,3.25
2023-09-07T09:22:43.970Z,4.20
2023-09-07T09:25:30.616Z,3.80
2023-09-07T09:28:17.865Z,4.13
2023-09-07T09:31:13.214Z,4.10
2023-09-07T09:34:07.964Z,3.90
2023-09-07T09:36:55.304Z,4.00
2023-09-07T09:39:43.138Z,3.75
2023-09-07T09:42:30.169Z,3.80
2023-09-07T09:45:19.558Z,4.10
2023-09-07T09:48:08.736Z,3.90
2023-09-07T09:50:56.239Z,3.30
2023-09-07T09:53:44.490Z,4.30
2023-09-07T09:56:31.330Z,4.10
2023-09-07T09:59:17.977Z,4.18
2023-09-07T10:02:08.947Z,3.83
2023-09-07T10:04:56.982Z,3.45
2023-09-07T10:07:46.109Z,3.80
2023-09-07T10:10:40.994Z,3.90
2023-09-07T10:13:34.573Z,3.80
2023-09-07T10:16:21.165Z,3.60
2023-09-07T10:19:19.426Z,3.55
2023-09-07T10:22:07.369Z,3.75
2023-09-07T10:24:37.195Z,3.90
2023-09-07T10:27:07.220Z,3.60
2023-09-07T10:29:44.158Z,4.18
2023-09-07T10:32:14.830Z,3.72
2023-09-07T10:34:45.094Z,3.60
2023-09-07T10:37:19.485Z,4.40
2023-09-07T10:39:47.984Z,3.67
2023-09-07T10:42:27.762Z,3.42
2023-09-07T10:44:58.574Z,3.75
2023-09-07T10:47:26.986Z,4.30
2023-09-07T10:49:57.883Z,4.18
2023-09-07T10:52:27.434Z,4.07
2023-09-07T10:55:03.869Z,4.10
2023-09-07T10:57:31.946Z,3.85
2023-09-07T10:59:59.996Z,4.40
2023-09-07T11:02:28.255Z,3.60
2023-09-07T11:04:56.428Z,4.30
2023-09-07T11:07:27.788Z,4.00
2023-09-07T11:09:57.271Z,3.80
2023-09-07T11:12:25.380Z,4.55
2023-09-07T11:14:54.140Z,4.00
2023-09-07T11:17:28.372Z,3.70
2023-09-07T11:19:56.668Z,4.80
2023-09-07T11:22:25.029Z,3.92
2023-09-07T11:25:12.973Z,4.15
2023-09-07T11:28:00.191Z,3.42
2023-09-07T11:30:56.556Z,3.75
2023-09-07T11:33:43.468Z,4.40
2023-09-07T11:36:32.124Z,5.80
2023-09-07T11:39:19.025Z,5.53
2023-09-07T11:42:09.107Z,4.25
2023-09-07T11:44:55.920Z,3.90
2023-09-07T11:47:42.698Z,4.20
2023-09-07T11:50:31.127Z,4.53
2023-09-07T11:53:21.345Z,4.83
2023-09-07T11:56:10.231Z,3.70
2023-09-07T11:59:00.670Z,4.40
2023-09-07T12:01:47.526Z,4.30
2023-09-07T12:04:34.601Z,4.00
2023-09-07T12:07:21.077Z,4.30
2023-09-07T12:10:11.259Z,3.50
2023-09-07T12:12:57.901Z,4.30
2023-09-07T12:15:45.983Z,4.07
2023-09-07T12:18:32.606Z,4.07
2023-09-07T12:21:22.070Z,4.20
2023-09-07T12:24:08.777Z,4.00
2023-09-07T12:27:00.662Z,3.70
2023-09-07T12:29:50.124Z,4.20
2023-09-07T12:32:41.256Z,4.40
2023-09-07T12:35:28.099Z,4.00
2023-09-07T12:38:18.535Z,3.92
2023-09-07T12:41:05.413Z,3.75
2023-09-07T12:43:34.669Z,3.90
2023-09-07T12:46:05.552Z,4.00
2023-09-07T12:48:42.385Z,3.88
2023-09-07T12:51:10.507Z,4.18
2023-09-07T12:53:38.590Z,3.80
2023-09-07T12:56:08.028Z,4.23
2023-09-07T12:58:36.098Z,4.10
2023-09-07T13:01:05.066Z,3.88
2023-09-07T13:03:34.952Z,4.28
2023-09-07T13:06:04.118Z,3.90
2023-09-07T13:08:32.217Z,4.00
2023-09-07T13:11:00.286Z,4.68
2023-09-07T13:13:31.841Z,3.72
2023-09-07T13:16:00.701Z,3.92
2023-09-07T13:18:28.917Z,4.00
2023-09-07T13:21:00.517Z,3.67
2023-09-07T13:23:36.426Z,4.10
2023-09-07T13:26:12.710Z,4.43
2023-09-07T13:28:41.552Z,3.80
2023-09-07T13:31:10.148Z,4.10
2023-09-07T13:33:46.856Z,3.92
2023-09-07T13:36:16.352Z,3.72
2023-09-07T13:38:47.355Z,3.92
2023-09-07T13:41:16.441Z,3.90
2023-09-07T13:44:02.756Z,4.00
2023-09-07T13:46:54.476Z,3.75
2023-09-07T13:49:41.143Z,3.90
2023-09-07T13:52:29.593Z,3.47
2023-09-07T13:55:18.799Z,3.78
2023-09-07T13:58:08.118Z,3.80
2023-09-07T14:00:54.550Z,3.47
2023-09-07T14:03:40.917Z,3.67
2023-09-07T14:06:10.296Z,3.92
2023-09-07T14:08:39.702Z,4.03
2023-09-07T14:11:09.917Z,3.80
2023-09-07T14:13:38.055Z,5.03
2023-09-07T14:16:06.904Z,3.75
2023-09-07T14:18:37.865Z,3.40
2023-09-07T14:21:06.093Z,3.80
2023-09-07T14:23:34.425Z,3.63
2023-09-07T14:26:08.000Z,3.80
2023-09-07T14:28:36.084Z,3.40
2023-09-07T14:31:07.791Z,3.80
2023-09-07T14:33:39.568Z,3.60
2023-09-07T14:36:08.583Z,3.70
2023-09-07T14:38:41.779Z,3.50
2023-09-07T14:41:12.632Z,3.20
2023-09-07T14:43:41.081Z,3.60
2023-09-07T14:46:09.223Z,3.70
2023-09-07T14:48:37.684Z,3.00
2023-09-07T14:51:05.811Z,3.30
2023-09-07T14:53:34.122Z,3.37
2023-09-07T14:56:02.586Z,2.97
2023-09-07T14:58:56.545Z,3.30
2023-09-07T15:01:47.866Z,3.17
2023-09-07T15:04:39.793Z,3.38
2023-09-07T15:07:27.189Z,3.25
2023-09-07T15:10:15.737Z,3.03
2023-09-07T15:13:03.560Z,3.20
2023-09-07T15:15:51.652Z,3.13
2023-09-07T15:18:43.558Z,3.30
2023-09-07T15:21:34.576Z,3.27
2023-09-07T15:24:25.767Z,3.20
2023-09-07T15:27:13.239Z,3.92
2023-09-07T15:30:15.604Z,4.00
2023-09-07T15:33:03.699Z,3.40
2023-09-07T15:35:50.670Z,3.00
2023-09-07T15:38:39.617Z,3.35
2023-09-07T15:41:29.100Z,2.50
2023-09-07T15:44:18.452Z,3.33
2023-09-07T15:47:05.696Z,3.38
2023-09-07T15:50:00.161Z,2.88
2023-09-07T15:52:48.415Z,3.55
2023-09-07T15:55:35.081Z,3.40
2023-09-07T15:58:22.524Z,3.03
2023-09-07T16:01:09.487Z,3.00
2023-09-07T16:03:59.446Z,3.20
2023-09-07T16:06:48.592Z,3.60
2023-09-07T16:09:37.102Z,3.53
2023-09-07T16:12:24.045Z,3.30
2023-09-07T16:15:11.735Z,3.20
2023-09-07T16:17:59.164Z,3.53
2023-09-07T16:20:46.213Z,3.47
2023-09-07T16:23:34.601Z,3.70
2023-09-07T16:26:22.422Z,4.03
2023-09-07T16:34:05.047Z,4.00
2023-09-07T16:36:52.210Z,4.50
2023-09-07T16:39:40.729Z,4.18
2023-09-07T16:42:27.729Z,3.42
2023-09-07T16:45:15.197Z,3.58
2023-09-07T16:48:01.631Z,3.80
2023-09-07T16:50:48.071Z,3.80
2023-09-07T16:53:35.593Z,3.60
2023-09-07T16:56:24.419Z,4.07
2023-09-07T17:01:24.936Z,3.53
2023-09-07T17:03:55.307Z,3.60
2023-09-07T17:06:23.613Z,4.15
2023-09-07T17:08:51.728Z,4.22
2023-09-07T17:11:20.307Z,4.00
2023-09-07T17:14:01.485Z,3.10
2023-09-07T17:16:31.139Z,4.03
2023-09-07T17:18:59.371Z,3.40
2023-09-07T17:21:27.508Z,3.75
2023-09-07T17:23:55.766Z,3.27
2023-09-07T17:26:24.019Z,3.50
2023-09-07T17:28:53.683Z,3.60
2023-09-07T17:31:22.143Z,3.75
2023-09-07T17:33:52.782Z,3.40
2023-09-07T17:36:23.071Z,3.45
2023-09-07T17:38:56.013Z,3.30
2023-09-07T17:41:29.370Z,3.40
2023-09-07T17:44:03.647Z,3.20
2023-09-07T17:46:32.118Z,3.40
2023-09-07T17:49:08.437Z,3.50
2023-09-07T17:51:36.544Z,3.70
2023-09-07T17:54:05.446Z,3.88
2023-09-07T17:56:34.401Z,4.05
2023-09-07T17:59:25.710Z,4.38
2023-09-07T18:02:24.784Z,4.10
2023-09-07T18:05:12.176Z,3.60
2023-09-07T18:07:58.589Z,4.20
2023-09-07T18:10:45.261Z,3.90
2023-09-07T18:13:31.768Z,3.90
2023-09-07T18:16:22.337Z,4.45
2023-09-07T18:19:12.267Z,3.85
2023-09-07T18:22:03.008Z,3.70
2023-09-07T18:24:50.255Z,3.83
2023-09-07T18:27:36.953Z,3.80
2023-09-07T18:30:23.523Z,3.70
2023-09-07T18:33:11.798Z,4.10
2023-09-07T18:36:03.197Z,4.53
2023-09-07T18:38:50.267Z,4.60
2023-09-07T18:41:36.752Z,4.53
2023-09-07T18:44:23.498Z,4.95
2023-09-07T18:47:09.923Z,5.07
2023-09-07T18:50:01.079Z,4.47
2023-09-07T18:52:49.464Z,4.60
2023-09-07T18:55:36.720Z,4.85
2023-09-07T18:58:23.306Z,4.90
2023-09-07T19:01:17.003Z,5.30
2023-09-07T19:04:11.711Z,5.40
2023-09-07T19:07:06.381Z,4.75
2023-09-07T19:09:53.524Z,4.90
2023-09-07T19:12:48.764Z,4.63
2023-09-07T19:15:36.436Z,4.57
2023-09-07T19:18:25.572Z,4.85
2023-09-07T19:21:23.961Z,3.83
2023-09-07T19:24:14.915Z,4.20
2023-09-07T19:27:03.958Z,4.25
2023-09-07T19:29:54.218Z,4.53
2023-09-07T19:32:41.487Z,4.07
2023-09-07T19:35:30.580Z,3.95
2023-09-07T19:38:17.575Z,4.30
2023-09-07T19:41:05.270Z,4.10
2023-09-07T19:43:51.653Z,4.10
2023-09-07T19:46:45.463Z,4.05
2023-09-07T19:49:32.140Z,4.63
2023-09-07T19:52:18.515Z,4.35
2023-09-07T19:55:05.496Z,4.75
2023-09-07T19:57:53.359Z,3.85
2023-09-07T20:00:40.371Z,4.18
2023-09-07T20:03:26.835Z,4.60
2023-09-07T20:06:16.450Z,4.77
2023-09-07T20:09:03.453Z,4.53
2023-09-07T20:14:56.722Z,5.30
2023-09-07T20:17:44.651Z,4.65
2023-09-07T20:20:34.540Z,4.90
2023-09-07T20:23:21.140Z,5.10
2023-09-07T20:26:07.513Z,4.55
2023-09-07T20:28:54.087Z,5.35
2023-09-07T20:31:42.078Z,4.82
2023-09-07T20:34:29.424Z,5.22
2023-09-07T20:37:18.499Z,5.13
2023-09-07T20:40:11.393Z,5.47
2023-09-07T20:42:39.530Z,5.57
2023-09-07T20:45:08.300Z,4.45
2023-09-07T20:47:40.430Z,5.00
2023-09-07T20:50:11.400Z,4.88
2023-09-07T20:52:42.997Z,5.50
2023-09-07T20:55:11.588Z,5.50
2023-09-07T20:57:42.607Z,6.00
2023-09-07T21:00:15.684Z,5.88
2023-09-07T21:02:48.625Z,5.53
2023-09-07T21:05:18.882Z,5.80
2023-09-07T21:07:47.521Z,5.18
2023-09-07T21:10:18.843Z,5.50
2023-09-07T21:12:46.966Z,5.40
2023-09-07T21:15:16.687Z,5.60
2023-09-07T21:20:32.551Z,5.00
2023-09-07T21:23:19.390Z,5.60
2023-09-07T21:26:06.289Z,5.43
2023-09-07T21:28:53.085Z,5.70
2023-09-07T21:31:39.606Z,5.65
2023-09-07T21:34:30.202Z,5.85
2023-09-07T21:37:18.997Z,5.80
2023-09-07T21:40:06.139Z,5.70
2023-09-07T21:42:54.948Z,7.10
2023-09-07T21:45:44.288Z,6.32
2023-09-07T21:48:30.803Z,5.20
2023-09-07T21:51:00.460Z,5.38
2023-09-07T21:53:30.780Z,5.60
2023-09-07T21:56:01.342Z,5.95
2023-09-07T21:58:29.583Z,5.80
2023-09-07T22:00:59.911Z,6.18
2023-09-07T22:03:28.181Z,6.18
2023-09-07T22:05:56.695Z,6.68
2023-09-07T22:08:27.406Z,6.70
2023-09-07T22:10:55.623Z,6.10
2023-09-07T22:13:25.922Z,5.63
2023-09-07T22:15:54.668Z,5.90
2023-09-07T22:18:23.028Z,6.43
2023-09-07T22:20:51.303Z,5.82
2023-09-07T22:23:29.273Z,5.60
2023-09-07T22:28:54.403Z,5.93
2023-09-07T22:31:22.808Z,5.70
2023-09-07T22:33:51.561Z,6.38
2023-09-07T22:36:20.313Z,5.80
2023-09-07T22:38:48.583Z,6.13
2023-09-07T22:41:20.648Z,6.15
2023-09-07T22:44:07.349Z,6.10
2023-09-07T22:46:54.688Z,5.60
2023-09-07T22:49:41.886Z,6.40
2023-09-07T22:52:30.518Z,6.90
2023-09-07T22:55:36.806Z,5.40
2023-09-07T22:58:24.866Z,6.68
2023-09-07T23:01:11.464Z,5.82
2023-09-07T23:03:58.581Z,6.30
2023-09-07T23:06:45.577Z,5.70
2023-09-07T23:09:32.739Z,7.18
2023-09-07T23:12:19.876Z,6.50
2023-09-07T23:15:08.981Z,6.63
2023-09-07T23:17:58.390Z,6.28
2023-09-07T23:20:45.586Z,5.68
2023-09-07T23:23:32.070Z,6.13
2023-09-07T23:26:21.625Z,5.87
2023-09-07T23:29:08.066Z,6.30
2023-09-07T23:31:55.998Z,6.00
2023-09-07T23:34:49.122Z,5.75
2023-09-07T23:37:39.215Z,6.15
2023-09-07T23:40:28.189Z,6.32
2023-09-07T23:43:17.100Z,5.90
2023-09-07T23:46:03.740Z,6.18
2023-09-07T23:48:51.942Z,5.82
2023-09-07T23:51:38.961Z,5.40
2023-09-07T23:54:25.505Z,6.57
2023-09-07T23:57:12.593Z,5.95
